Time;durP1;ratioP1;P1;durP2;ratioP2;P2;SDS_P1;SDS_P2;PMS_P1;PMS_P2;Temp;Humidity;BMP_temperature;BMP_pressure;BME280_temperature;BME280_humidity;BME280_pressure;Samples;Min_cycle;Max_cycle;Signal;HPM_P1;HPM_P2
2024/04/10 00:02:18;;;;;;;3.50;0.90;;;12.30;99.90;;;;;;5397402;26;20698;-72
2024/04/10 00:04:48;;;;;;;1.45;0.70;;;12.20;99.90;;;;;;5385727;26;20255;-71
2024/04/10 00:07:14;;;;;;;2.10;0.90;;;12.20;99.90;;;;;;5401727;26;20237;-72
2024/04/10 00:09:40;;;;;;;1.13;0.85;;;12.30;99.90;;;;;;5387097;26;20640;-72
2024/04/10 00:12:06;;;;;;;1.85;0.80;;;12.30;99.90;;;;;;5365660;26;20336;-71
2024/04/10 00:14:36;;;;;;;2.00;0.90;;;12.30;99.90;;;;;;5365972;26;20708;-72
2024/04/10 00:17:01;;;;;;;2.15;0.80;;;12.20;99.90;;;;;;5353225;26;20261;-73
2024/04/10 00:19:27;;;;;;;2.20;0.80;;;12.30;99.90;;;;;;5347330;26;20227;-72
2024/04/10 00:21:53;;;;;;;3.25;0.90;;;12.20;99.90;;;;;;5340939;26;20335;-71
2024/04/10 00:24:20;;;;;;;1.35;0.70;;;12.20;99.90;;;;;;5361529;26;20398;-72
2024/04/10 00:26:49;;;;;;;0.60;0.60;;;12.30;99.90;;;;;;5370470;26;20385;-72
2024/04/10 00:29:15;;;;;;;1.65;0.80;;;12.30;99.90;;;;;;5380322;26;20308;-72
2024/04/10 00:31:41;;;;;;;1.90;1.20;;;12.30;99.90;;;;;;5379621;26;20245;-72
2024/04/10 00:34:07;;;;;;;2.78;0.68;;;12.30;99.90;;;;;;5364561;26;20294;-72
2024/04/10 00:36:33;;;;;;;2.33;0.73;;;12.20;99.90;;;;;;5382004;26;20242;-71
2024/04/10 00:38:59;;;;;;;1.10;0.70;;;12.20;99.90;;;;;;5379681;26;20297;-72
2024/04/10 00:41:24;;;;;;;0.88;0.70;;;12.10;99.90;;;;;;5379462;26;20284;-72
2024/04/10 00:43:50;;;;;;;2.30;1.00;;;12.20;99.90;;;;;;5359422;26;20235;-71
2024/04/10 00:46:20;;;;;;;1.65;0.88;;;12.10;99.90;;;;;;5361894;26;20235;-72
2024/04/10 00:48:47;;;;;;;1.42;0.80;;;12.00;99.90;;;;;;5355634;26;20743;-71
2024/04/10 00:51:18;;;;;;;1.98;0.60;;;12.10;99.90;;;;;;5379323;26;20241;-72
2024/04/10 00:53:45;;;;;;;2.13;0.73;;;12.00;99.90;;;;;;5353662;26;20243;-72
2024/04/10 00:56:11;;;;;;;1.42;0.70;;;12.00;99.90;;;;;;5373739;26;20370;-71
2024/04/10 00:58:38;;;;;;;3.20;1.08;;;12.00;99.90;;;;;;5377799;26;20370;-71
2024/04/10 01:01:04;;;;;;;2.28;0.73;;;12.00;99.90;;;;;;5365147;26;20750;-71
2024/04/10 01:03:31;;;;;;;1.75;0.98;;;12.00;99.90;;;;;;5376229;26;20277;-73
2024/04/10 01:06:01;;;;;;;4.60;1.30;;;12.00;99.90;;;;;;5362050;26;20273;-72
2024/04/10 01:08:28;;;;;;;1.65;0.70;;;12.00;99.90;;;;;;5381524;26;20273;-71
2024/04/10 01:10:54;;;;;;;1.17;0.70;;;12.00;99.90;;;;;;5391352;26;20233;-73
2024/04/10 01:13:20;;;;;;;2.30;0.85;;;12.10;99.90;;;;;;5361994;26;20234;-72
2024/04/10 01:15:46;;;;;;;1.20;0.80;;;12.10;99.90;;;;;;5362495;26;20322;-72
2024/04/10 01:18:12;;;;;;;1.40;0.65;;;12.10;99.90;;;;;;5363926;26;20239;-71
2024/04/10 01:20:38;;;;;;;1.33;0.60;;;12.10;99.90;;;;;;5377941;26;20309;-72
2024/04/10 01:23:04;;;;;;;2.20;0.80;;;12.10;99.90;;;;;;5378060;26;20230;-73
2024/04/10 01:25:30;;;;;;;0.90;0.82;;;12.10;99.90;;;;;;5374739;26;20280;-70
2024/04/10 01:27:56;;;;;;;1.92;0.80;;;12.10;99.90;;;;;;5350019;26;20239;-72
2024/04/10 01:30:22;;;;;;;1.17;0.70;;;12.00;99.90;;;;;;5368651;26;20289;-72
2024/04/10 01:32:47;;;;;;;3.85;1.05;;;12.00;99.90;;;;;;5369725;26;20458;-74
2024/04/10 01:35:13;;;;;;;3.50;0.93;;;12.00;99.90;;;;;;5353945;26;20629;-72
2024/04/10 01:37:39;;;;;;;3.33;1.17;;;12.00;99.90;;;;;;5354655;26;20269;-72
2024/04/10 01:40:06;;;;;;;2.10;0.77;;;12.00;99.90;;;;;;5364822;26;20246;-72
2024/04/10 01:42:32;;;;;;;2.15;0.80;;;12.00;99.90;;;;;;5374231;26;20257;-72
2024/04/10 01:44:59;;;;;;;3.13;1.00;;;12.00;99.90;;;;;;5387133;26;20276;-72
2024/04/10 01:47:25;;;;;;;1.50;0.80;;;12.00;99.90;;;;;;5373275;26;20342;-71
2024/04/10 01:49:51;;;;;;;5.07;1.00;;;11.90;99.90;;;;;;5387670;26;20293;-73
2024/04/10 01:52:16;;;;;;;2.05;0.70;;;11.90;99.90;;;;;;5386115;26;20229;-72
2024/04/10 01:54:42;;;;;;;1.83;0.60;;;11.90;99.90;;;;;;5377195;26;20293;-73
2024/04/10 01:57:08;;;;;;;2.25;0.65;;;11.90;99.90;;;;;;5371978;26;20629;-72
2024/04/10 01:59:33;;;;;;;2.08;1.02;;;12.00;99.90;;;;;;5378765;26;20241;-72
2024/04/10 02:01:59;;;;;;;4.38;1.58;;;12.00;99.90;;;;;;5380981;26;20347;-72
2024/04/10 02:04:25;;;;;;;1.75;0.90;;;12.00;99.90;;;;;;5362819;26;20289;-72
2024/04/10 02:06:50;;;;;;;3.28;1.20;;;12.00;99.90;;;;;;5358156;26;20336;-73
2024/04/10 02:09:16;;;;;;;1.35;0.80;;;12.00;99.90;;;;;;5345180;26;20239;-72
2024/04/10 02:11:42;;;;;;;3.42;1.13;;;12.00;99.90;;;;;;5353499;26;20817;-73
2024/04/10 02:14:07;;;;;;;2.35;0.80;;;12.00;99.90;;;;;;5357188;26;20272;-72
2024/04/10 02:16:33;;;;;;;1.90;0.70;;;12.00;99.90;;;;;;5369917;26;20284;-71
2024/04/10 02:18:58;;;;;;;1.63;1.00;;;12.00;99.90;;;;;;5377024;26;20265;-72
2024/04/10 02:21:24;;;;;;;1.20;1.00;;;12.00;99.90;;;;;;5375110;26;20250;-72
2024/04/10 02:23:50;;;;;;;2.05;0.75;;;12.00;99.90;;;;;;5358685;26;20284;-72
2024/04/10 02:26:15;;;;;;;2.17;0.70;;;11.90;99.90;;;;;;5364219;26;20238;-71
2024/04/10 02:28:41;;;;;;;1.13;0.63;;;11.80;99.90;;;;;;5376839;26;20288;-72
2024/04/10 02:31:07;;;;;;;2.15;0.82;;;11.90;99.90;;;;;;5378856;26;20234;-72
2024/04/10 02:33:39;;;;;;;2.80;0.80;;;12.00;99.90;;;;;;5349403;26;20591;-72
2024/04/10 02:36:06;;;;;;;5.65;0.98;;;11.90;99.90;;;;;;5370060;26;20281;-71
2024/04/10 02:38:33;;;;;;;1.93;1.00;;;11.90;99.90;;;;;;5361557;26;20292;-72
2024/04/10 02:40:59;;;;;;;1.83;0.95;;;11.90;99.90;;;;;;5342879;26;20270;-71
2024/04/10 02:43:25;;;;;;;1.00;0.70;;;12.00;99.90;;;;;;5344134;26;20227;-71
2024/04/10 02:45:54;;;;;;;2.50;0.93;;;11.90;99.90;;;;;;5364626;26;20331;-72
2024/04/10 02:48:19;;;;;;;1.88;0.90;;;12.00;99.90;;;;;;5350419;26;20247;-72
2024/04/10 02:50:45;;;;;;;1.90;0.80;;;11.90;99.90;;;;;;5344916;26;20266;-71
2024/04/10 02:53:10;;;;;;;2.65;0.80;;;11.90;99.90;;;;;;5353561;26;20280;-71
2024/04/10 02:55:36;;;;;;;2.60;0.80;;;11.80;99.90;;;;;;5359812;26;20581;-70
2024/04/10 02:58:02;;;;;;;1.92;0.98;;;11.80;99.90;;;;;;5352154;26;20234;-71
2024/04/10 03:00:27;;;;;;;1.80;0.80;;;11.80;99.90;;;;;;5383620;26;20241;-71
2024/04/10 03:02:53;;;;;;;2.47;1.05;;;11.90;99.90;;;;;;5384734;26;20254;-71
2024/04/10 03:05:19;;;;;;;2.10;0.82;;;11.90;99.90;;;;;;5380681;26;20249;-72
2024/04/10 03:07:44;;;;;;;3.08;0.75;;;11.80;99.90;;;;;;5351088;26;20246;-71
2024/04/10 03:10:10;;;;;;;4.15;1.00;;;11.90;99.90;;;;;;5380259;26;20245;-72
2024/04/10 03:12:36;;;;;;;4.10;1.10;;;11.90;99.90;;;;;;5382391;26;20699;-72
2024/04/10 03:15:01;;;;;;;3.33;1.10;;;11.80;99.90;;;;;;5362050;26;20238;-73
2024/04/10 03:17:27;;;;;;;1.75;0.80;;;11.80;99.90;;;;;;5378584;26;20342;-72
2024/04/10 03:19:53;;;;;;;4.88;1.08;;;11.70;99.90;;;;;;5375768;26;20265;-72
2024/04/10 03:22:19;;;;;;;2.40;0.90;;;11.70;99.90;;;;;;5364891;26;20226;-72
2024/04/10 03:24:44;;;;;;;3.10;1.35;;;11.70;99.90;;;;;;5353290;26;20344;-72
2024/04/10 03:27:10;;;;;;;1.58;0.85;;;11.70;99.90;;;;;;5375972;26;20230;-73
2024/04/10 03:29:35;;;;;;;3.30;1.33;;;11.70;99.90;;;;;;5375783;26;20341;-72
2024/04/10 03:32:01;;;;;;;2.45;1.40;;;11.70;99.90;;;;;;5366068;26;20706;-72
2024/04/10 03:34:27;;;;;;;3.08;1.27;;;11.70;99.90;;;;;;5388249;26;20242;-74
2024/04/10 03:36:53;;;;;;;2.30;0.82;;;11.70;99.90;;;;;;5363542;26;20316;-72
2024/04/10 03:39:19;;;;;;;2.90;1.13;;;11.80;99.90;;;;;;5371391;26;20782;-71
2024/04/10 03:41:45;;;;;;;3.08;1.13;;;11.80;99.90;;;;;;5367608;26;20242;-74
2024/04/10 03:44:10;;;;;;;4.87;1.20;;;11.80;99.90;;;;;;5382262;26;20596;-71
2024/04/10 03:46:36;;;;;;;4.63;1.00;;;11.80;99.90;;;;;;5365214;26;20755;-71
2024/04/10 03:49:01;;;;;;;3.78;1.10;;;11.80;99.90;;;;;;5355282;26;20280;-71
2024/04/10 03:51:27;;;;;;;3.85;1.08;;;11.80;99.90;;;;;;5383291;26;20246;-74
2024/04/10 03:53:52;;;;;;;2.95;1.13;;;11.90;99.90;;;;;;5376351;26;20671;-71
2024/04/10 03:56:18;;;;;;;2.22;0.98;;;11.90;99.90;;;;;;5360261;26;20717;-71
2024/04/10 03:58:48;;;;;;;1.77;0.85;;;11.90;99.90;;;;;;5348024;26;20226;-71
2024/04/10 04:01:14;;;;;;;4.40;1.20;;;11.80;99.90;;;;;;5358459;26;20281;-72
2024/04/10 04:03:39;;;;;;;4.32;1.23;;;11.80;99.90;;;;;;5384803;26;20355;-72
2024/04/10 04:06:05;;;;;;;2.92;1.30;;;11.90;99.90;;;;;;5371920;26;20227;-72
2024/04/10 04:08:31;;;;;;;5.10;1.40;;;11.90;99.90;;;;;;5356167;26;20327;-72
2024/04/10 04:10:57;;;;;;;3.30;1.00;;;11.90;99.90;;;;;;5369971;26;20251;-71
2024/04/10 04:13:23;;;;;;;3.73;0.93;;;11.80;99.90;;;;;;5374470;26;20222;-72
2024/04/10 04:15:49;;;;;;;3.63;1.30;;;11.80;99.90;;;;;;5395728;26;20230;-73
2024/04/10 04:18:15;;;;;;;3.00;1.47;;;11.80;99.90;;;;;;5364184;26;20760;-72
2024/04/10 04:20:41;;;;;;;4.78;1.20;;;11.70;99.90;;;;;;5351371;26;20287;-72
2024/04/10 04:23:06;;;;;;;5.03;1.60;;;11.70;99.90;;;;;;5348228;26;20247;-72
2024/04/10 04:25:34;;;;;;;5.28;1.27;;;11.70;99.90;;;;;;5352746;26;20787;-72
2024/04/10 04:28:00;;;;;;;1.80;0.80;;;11.70;99.90;;;;;;5359394;26;20247;-73
2024/04/10 04:30:27;;;;;;;7.15;1.20;;;11.80;99.90;;;;;;5347280;26;20341;-72
2024/04/10 04:32:54;;;;;;;2.55;1.40;;;11.70;99.90;;;;;;5351331;26;20842;-72
2024/04/10 04:35:20;;;;;;;8.00;1.48;;;11.80;99.90;;;;;;5358852;26;20255;-72
2024/04/10 04:37:54;;;;;;;2.33;0.98;;;11.80;99.90;;;;;;5360844;26;20239;-73
2024/04/10 04:40:20;;;;;;;3.03;1.43;;;11.70;99.90;;;;;;5345210;26;20745;-72
2024/04/10 04:42:47;;;;;;;2.22;1.20;;;11.70;99.90;;;;;;5368333;26;20339;-72
2024/04/10 04:45:13;;;;;;;3.83;1.15;;;11.70;99.90;;;;;;5369997;26;20635;-71
2024/04/10 04:47:39;;;;;;;7.47;1.30;;;11.70;99.90;;;;;;5367715;26;20272;-71
2024/04/10 04:50:08;;;;;;;2.77;1.27;;;11.70;99.90;;;;;;5390114;26;20258;-72
2024/04/10 04:52:33;;;;;;;4.25;1.10;;;11.60;99.90;;;;;;5360920;26;20508;-73
2024/04/10 04:55:00;;;;;;;2.00;0.93;;;11.70;99.90;;;;;;5358779;26;20839;-71
2024/04/10 04:57:25;;;;;;;4.00;1.60;;;11.70;99.90;;;;;;5382809;26;20230;-73
2024/04/10 04:59:51;;;;;;;3.40;1.35;;;11.70;99.90;;;;;;5382149;26;20813;-72
2024/04/10 05:02:16;;;;;;;3.97;1.50;;;11.70;99.90;;;;;;5381777;26;20242;-71
2024/04/10 05:04:54;;;;;;;4.38;1.55;;;11.70;99.90;;;;;;5382030;26;20280;-72
2024/04/10 05:07:20;;;;;;;1.98;1.00;;;11.70;99.90;;;;;;5379625;26;20692;-71
2024/04/10 05:09:50;;;;;;;6.85;1.52;;;11.70;99.90;;;;;;5353495;26;20735;-73
2024/04/10 05:12:16;;;;;;;2.83;1.23;;;11.70;99.90;;;;;;5365898;26;20250;-71
2024/04/10 05:14:50;;;;;;;4.57;1.15;;;11.70;99.90;;;;;;5395235;26;20233;-72
2024/04/10 05:17:17;;;;;;;3.45;1.25;;;11.80;99.90;;;;;;5363581;26;20284;-71
2024/04/10 05:19:42;;;;;;;2.13;1.30;;;11.80;99.90;;;;;;5364349;26;20355;-71
2024/04/10 05:22:08;;;;;;;7.13;1.35;;;11.80;99.90;;;;;;5356672;26;20358;-72
2024/04/10 05:24:34;;;;;;;9.55;1.75;;;11.80;99.90;;;;;;5379951;26;20285;-71
2024/04/10 05:27:03;;;;;;;4.88;1.65;;;11.80;99.90;;;;;;5379593;26;20230;-72
2024/04/10 05:29:29;;;;;;;1.20;0.90;;;11.90;99.90;;;;;;5366293;26;20852;-72
2024/04/10 05:31:55;;;;;;;4.82;1.67;;;11.90;99.90;;;;;;5369020;26;20343;-73
2024/04/10 05:34:20;;;;;;;3.25;1.52;;;11.90;99.90;;;;;;5355111;26;20276;-72
2024/04/10 05:36:46;;;;;;;1.58;1.02;;;11.70;99.90;;;;;;5379110;26;20716;-72
2024/04/10 05:39:25;;;;;;;4.25;1.58;;;11.80;99.90;;;;;;5379053;26;20276;-71
2024/04/10 05:41:51;;;;;;;3.25;1.50;;;11.80;99.90;;;;;;5380566;26;20448;-72
2024/04/10 05:44:17;;;;;;;4.63;1.05;;;11.80;99.90;;;;;;5368425;26;20316;-72
2024/04/10 05:46:43;;;;;;;5.80;2.08;;;11.80;99.90;;;;;;5359014;26;20277;-71
2024/04/10 05:49:10;;;;;;;2.78;1.42;;;11.80;99.90;;;;;;5351808;26;20231;-71
2024/04/10 05:51:36;;;;;;;6.10;1.50;;;11.90;99.90;;;;;;5348438;26;20259;-71
2024/04/10 05:54:02;;;;;;;2.60;1.63;;;12.00;99.90;;;;;;5369121;26;20285;-72
2024/04/10 05:56:29;;;;;;;3.75;1.33;;;12.00;99.90;;;;;;5371859;26;20235;-72
2024/04/10 05:58:54;;;;;;;4.10;1.58;;;12.10;99.90;;;;;;5363050;26;20281;-72
2024/04/10 06:01:20;;;;;;;4.18;1.30;;;12.10;99.90;;;;;;5372008;26;20230;-72
2024/04/10 06:03:46;;;;;;;4.85;1.33;;;12.10;99.90;;;;;;5367878;26;20304;-71
2024/04/10 06:06:13;;;;;;;5.80;1.23;;;12.00;99.90;;;;;;5388778;26;20238;-72
2024/04/10 06:08:44;;;;;;;2.92;1.20;;;12.00;99.90;;;;;;5389046;26;20277;-72
2024/04/10 06:11:10;;;;;;;3.22;1.30;;;11.90;99.90;;;;;;5361498;26;20258;-71
2024/04/10 06:13:36;;;;;;;4.07;1.98;;;11.90;99.90;;;;;;5355279;26;20269;-72
2024/04/10 06:16:03;;;;;;;3.92;1.55;;;12.00;99.90;;;;;;5360885;26;20285;-72
2024/04/10 06:18:29;;;;;;;7.38;2.08;;;12.00;99.90;;;;;;5347872;26;20231;-72
2024/04/10 06:20:59;;;;;;;4.05;1.55;;;12.00;99.90;;;;;;5347058;26;20693;-71
2024/04/10 06:23:25;;;;;;;3.63;1.33;;;11.90;99.90;;;;;;5359794;26;20277;-72
2024/04/10 06:25:51;;;;;;;2.33;1.20;;;11.90;99.90;;;;;;5361499;26;20273;-71
2024/04/10 06:28:17;;;;;;;5.38;1.95;;;11.90;99.90;;;;;;5346334;26;20230;-71
2024/04/10 06:30:43;;;;;;;2.95;1.52;;;11.90;99.90;;;;;;5347200;26;20301;-74
2024/04/10 06:33:09;;;;;;;5.03;1.65;;;11.90;99.90;;;;;;5365464;26;20351;-72
2024/04/10 06:35:35;;;;;;;6.85;1.77;;;11.80;99.90;;;;;;5381749;26;20233;-73
2024/04/10 06:38:00;;;;;;;5.47;1.40;;;11.90;99.90;;;;;;5370128;26;20246;-72
2024/04/10 06:40:26;;;;;;;3.78;1.00;;;11.90;99.90;;;;;;5366357;26;20246;-71
2024/04/10 06:42:51;;;;;;;4.15;1.48;;;11.80;99.90;;;;;;5345354;26;20238;-71
2024/04/10 06:45:17;;;;;;;4.75;1.90;;;11.90;99.90;;;;;;5350469;26;20335;-72
2024/04/10 06:47:43;;;;;;;4.30;1.45;;;11.90;99.90;;;;;;5366121;26;20634;-72
2024/04/10 06:50:09;;;;;;;5.57;1.50;;;11.90;99.90;;;;;;5381556;26;20249;-71
2024/04/10 06:52:35;;;;;;;5.03;1.55;;;11.90;99.90;;;;;;5382353;26;20322;-74
2024/04/10 06:55:02;;;;;;;3.30;1.40;;;11.80;99.90;;;;;;5377384;26;20401;-72
2024/04/10 06:57:27;;;;;;;3.75;1.15;;;11.90;99.90;;;;;;5367748;26;20234;-73
2024/04/10 06:59:53;;;;;;;4.38;1.23;;;11.90;99.90;;;;;;5374832;26;20287;-72
2024/04/10 07:02:19;;;;;;;1.80;1.27;;;11.90;99.90;;;;;;5367292;26;20755;-72
2024/04/10 07:04:47;;;;;;;9.15;1.90;;;12.00;99.90;;;;;;5379373;26;20234;-71
2024/04/10 07:07:13;;;;;;;4.95;2.20;;;12.10;99.90;;;;;;5380644;26;20242;-73
2024/04/10 07:09:39;;;;;;;2.83;1.00;;;12.00;99.90;;;;;;5379948;26;20229;-72
2024/04/10 07:12:04;;;;;;;4.38;1.33;;;12.00;99.90;;;;;;5373653;26;20794;-72
2024/04/10 07:14:34;;;;;;;5.10;1.45;;;12.00;99.90;;;;;;5359599;26;20235;-73
2024/04/10 07:17:00;;;;;;;5.43;1.20;;;12.10;99.90;;;;;;5345856;26;20231;-71
2024/04/10 07:19:26;;;;;;;5.60;1.30;;;12.20;99.90;;;;;;5351937;26;20278;-72
2024/04/10 07:21:52;;;;;;;3.13;1.60;;;12.30;99.90;;;;;;5346146;26;20238;-73
2024/04/10 07:24:18;;;;;;;4.90;1.35;;;12.30;99.90;;;;;;5346141;26;20238;-72
2024/04/10 07:26:44;;;;;;;2.60;1.13;;;12.20;99.90;;;;;;5360703;26;20348;-72
2024/04/10 07:29:09;;;;;;;14.82;1.55;;;12.20;99.90;;;;;;5359573;26;20234;-71
2024/04/10 07:31:36;;;;;;;3.92;1.50;;;12.20;99.90;;;;;;5345473;26;20305;-74
2024/04/10 07:34:03;;;;;;;7.40;1.70;;;12.20;99.90;;;;;;5345492;26;20325;-71
2024/04/10 07:36:31;;;;;;;3.97;1.45;;;12.20;99.90;;;;;;5352943;26;20239;-72
2024/04/10 07:38:58;;;;;;;6.13;1.40;;;12.20;99.90;;;;;;5365951;26;20244;-72
2024/04/10 07:41:24;;;;;;;5.15;1.45;;;12.20;99.90;;;;;;5369348;26;20385;-72
2024/04/10 07:43:51;;;;;;;3.83;1.30;;;12.20;99.90;;;;;;5386343;26;20581;-73
2024/04/10 07:46:19;;;;;;;4.22;1.33;;;12.20;99.90;;;;;;5383807;26;20234;-72
2024/04/10 07:48:48;;;;;;;5.68;1.77;;;12.20;99.90;;;;;;5381329;26;20276;-72
2024/04/10 07:51:14;;;;;;;5.63;1.42;;;12.20;99.90;;;;;;5382699;26;20663;-72
2024/04/10 07:53:41;;;;;;;6.57;1.70;;;12.20;99.90;;;;;;5381504;26;20230;-71
2024/04/10 07:56:07;;;;;;;4.53;1.63;;;12.20;99.90;;;;;;5357480;26;20242;-72
2024/04/10 07:58:34;;;;;;;4.63;1.33;;;12.30;99.90;;;;;;5384221;26;20242;-71
2024/04/10 08:01:00;;;;;;;4.43;1.58;;;12.30;99.90;;;;;;5368592;26;20242;-72
2024/04/10 08:03:28;;;;;;;6.90;1.77;;;12.30;99.90;;;;;;5381039;26;20253;-72
2024/04/10 08:05:54;;;;;;;2.83;0.98;;;12.30;99.90;;;;;;5382913;26;20290;-72
2024/04/10 08:08:20;;;;;;;3.00;1.35;;;12.40;99.90;;;;;;5385950;26;20647;-72
2024/04/10 08:10:47;;;;;;;3.90;1.67;;;12.30;99.90;;;;;;5372359;26;20230;-72
2024/04/10 08:13:13;;;;;;;3.72;1.27;;;12.30;99.90;;;;;;5367969;26;20239;-73
2024/04/10 08:15:39;;;;;;;4.57;1.73;;;12.20;99.90;;;;;;5360343;26;20619;-72
2024/04/10 08:18:05;;;;;;;4.35;1.40;;;12.20;99.90;;;;;;5384236;26;20279;-71
2024/04/10 08:20:31;;;;;;;5.60;1.45;;;12.30;99.90;;;;;;5385743;26;20276;-72
2024/04/10 08:22:57;;;;;;;5.07;1.60;;;12.30;99.90;;;;;;5391991;26;20328;-73
2024/04/10 08:25:23;;;;;;;4.53;1.58;;;12.40;99.90;;;;;;5364031;26;20586;-72
2024/04/10 08:27:48;;;;;;;8.77;2.15;;;12.50;99.90;;;;;;5348538;26;20299;-71
2024/04/10 08:30:14;;;;;;;6.10;1.60;;;12.60;99.90;;;;;;5374120;26;20288;-72
2024/04/10 08:32:39;;;;;;;7.38;1.60;;;12.70;99.90;;;;;;5383167;26;20296;-73
2024/04/10 08:35:06;;;;;;;3.17;1.60;;;12.60;99.90;;;;;;5382983;26;20242;-71
2024/04/10 08:37:31;;;;;;;7.10;1.55;;;12.60;99.90;;;;;;5372830;26;20302;-71
2024/04/10 08:39:57;;;;;;;4.53;1.95;;;12.70;99.90;;;;;;5360744;26;20620;-70
2024/04/10 08:42:23;;;;;;;4.57;1.13;;;12.70;99.90;;;;;;5375456;26;20321;-72
2024/04/10 08:44:51;;;;;;;5.03;1.30;;;12.70;99.90;;;;;;5347595;26;20235;-71
2024/04/10 08:47:19;;;;;;;4.20;1.85;;;12.70;99.90;;;;;;5347960;26;20238;-72
2024/04/10 08:49:44;;;;;;;6.82;1.63;;;12.80;99.90;;;;;;5348097;26;20239;-73
2024/04/10 08:52:11;;;;;;;3.03;1.02;;;13.00;99.90;;;;;;5358222;26;20284;-73
2024/04/10 08:54:37;;;;;;;2.95;0.98;;;13.10;99.90;;;;;;5355306;26;20226;-71
2024/04/10 08:57:04;;;;;;;4.35;1.45;;;13.20;99.90;;;;;;5383132;26;20276;-73
2024/04/10 08:59:30;;;;;;;5.93;1.67;;;13.20;99.90;;;;;;5382746;26;20280;-72
2024/04/10 09:01:57;;;;;;;4.22;1.92;;;13.40;99.90;;;;;;5383074;26;20793;-73
2024/04/10 09:04:24;;;;;;;5.68;2.20;;;13.60;99.90;;;;;;5371159;26;20246;-73
2024/04/10 09:07:00;;;;;;;4.70;1.55;;;14.10;99.90;;;;;;5360883;26;20281;-72
2024/04/10 09:09:26;;;;;;;6.88;2.00;;;14.70;99.90;;;;;;5368164;26;20762;-71
2024/04/10 09:11:52;;;;;;;4.82;2.38;;;15.20;99.90;;;;;;5381899;26;20250;-71
2024/04/10 09:14:18;;;;;;;6.10;1.88;;;15.40;99.90;;;;;;5381480;26;20242;-72
2024/04/10 09:16:43;;;;;;;7.20;1.42;;;15.50;99.90;;;;;;5386913;26;20235;-72
2024/04/10 09:19:11;;;;;;;5.43;1.38;;;15.30;99.90;;;;;;5352775;26;20277;-72
2024/04/10 09:21:40;;;;;;;7.32;1.90;;;15.20;99.90;;;;;;5357469;26;20341;-72
2024/04/10 09:24:08;;;;;;;13.90;3.60;;;15.20;99.90;;;;;;5345210;26;20243;-72
2024/04/10 09:26:35;;;;;;;9.70;2.17;;;15.10;99.90;;;;;;5343760;26;20331;-71
2024/04/10 09:29:04;;;;;;;4.03;1.42;;;14.90;99.90;;;;;;5343046;26;20602;-72
2024/04/10 09:31:31;;;;;;;3.25;1.30;;;15.20;99.90;;;;;;5345668;26;20441;-73
2024/04/10 09:33:57;;;;;;;8.20;1.48;;;15.30;99.90;;;;;;5360775;26;20857;-72
2024/04/10 09:36:23;;;;;;;7.63;1.60;;;15.20;99.90;;;;;;5384442;26;20224;-72
2024/04/10 09:38:50;;;;;;;4.68;1.63;;;15.20;99.90;;;;;;5361704;26;20340;-73
2024/04/10 09:41:16;;;;;;;4.68;1.50;;;15.00;99.90;;;;;;5353463;26;20317;-71
2024/04/10 09:43:43;;;;;;;6.05;1.40;;;15.20;99.90;;;;;;5396387;26;20238;-71
2024/04/10 09:46:09;;;;;;;5.47;1.60;;;15.40;99.90;;;;;;5375769;26;20268;-71
2024/04/10 09:48:37;;;;;;;5.25;2.08;;;15.30;99.90;;;;;;5361354;26;20230;-72
2024/04/10 09:51:10;;;;;;;5.50;1.40;;;15.40;99.90;;;;;;5343738;26;20250;-71
2024/04/10 09:53:36;;;;;;;6.55;2.20;;;15.70;99.90;;;;;;5346649;26;20776;-72
2024/04/10 09:56:07;;;;;;;4.70;1.63;;;15.60;99.90;;;;;;5364823;26;20632;-73
2024/04/10 09:58:34;;;;;;;6.03;1.73;;;15.50;99.90;;;;;;5361438;26;20328;-72
2024/04/10 10:01:03;;;;;;;7.68;1.60;;;15.20;99.90;;;;;;5361874;26;20348;-71
2024/04/10 10:03:29;;;;;;;3.83;1.75;;;15.10;99.90;;;;;;5365056;26;20866;-72
2024/04/10 10:06:06;;;;;;;7.13;1.58;;;15.00;99.90;;;;;;5383668;26;20562;-71
2024/04/10 10:08:33;;;;;;;9.82;2.03;;;14.60;99.90;;;;;;5374510;26;20802;-72
2024/04/10 10:10:59;;;;;;;4.38;1.40;;;14.60;99.90;;;;;;5345847;26;20239;-73
2024/04/10 10:13:31;;;;;;;5.28;1.60;;;14.50;99.90;;;;;;5345576;26;20368;-73
2024/04/10 10:16:02;;;;;;;7.20;2.08;;;14.40;99.90;;;;;;5346501;26;20749;-73
2024/04/10 10:18:28;;;;;;;5.82;1.58;;;14.30;99.90;;;;;;5360946;26;20235;-71
2024/04/10 10:21:23;;;;;;;3.38;1.60;;;14.10;99.90;;;;;;5372084;26;20292;-72
2024/04/10 10:24:02;;;;;;;6.13;1.83;;;14.00;99.90;;;;;;5348368;26;20269;-72
2024/04/10 10:26:27;;;;;;;7.65;1.70;;;14.10;99.90;;;;;;5364457;26;20613;-72
2024/04/10 10:29:07;;;;;;;5.53;1.25;;;14.20;99.90;;;;;;5389611;26;20232;-74
2024/04/10 10:31:34;;;;;;;9.90;1.48;;;14.20;99.90;;;;;;5351589;26;20289;-71
2024/04/10 10:34:05;;;;;;;6.45;1.85;;;14.20;99.90;;;;;;5380020;26;20242;-72
2024/04/10 10:36:34;;;;;;;8.70;2.08;;;14.10;99.90;;;;;;5375333;26;20681;-71
2024/04/10 10:39:10;;;;;;;7.30;1.45;;;14.10;99.90;;;;;;5372976;26;20230;-72
2024/04/10 10:41:36;;;;;;;7.18;1.60;;;14.10;99.90;;;;;;5367117;26;20557;-72
2024/04/10 10:44:03;;;;;;;6.78;1.90;;;14.10;99.90;;;;;;5378507;26;20241;-71
2024/04/10 10:46:28;;;;;;;3.78;1.20;;;14.10;99.90;;;;;;5360467;26;20575;-73
2024/04/10 10:48:54;;;;;;;3.90;1.25;;;14.10;99.90;;;;;;5345480;26;20274;-71
2024/04/10 10:51:21;;;;;;;3.55;1.40;;;14.20;99.90;;;;;;5346870;26;20235;-72
2024/04/10 10:53:47;;;;;;;5.53;1.70;;;14.20;99.90;;;;;;5352621;26;20226;-72
2024/04/10 10:56:30;;;;;;;6.60;1.58;;;14.20;99.90;;;;;;5367681;26;20233;-72
2024/04/10 10:59:09;;;;;;;3.80;1.48;;;14.20;99.90;;;;;;5372529;26;20354;-73
2024/04/10 11:01:35;;;;;;;5.13;1.95;;;14.10;99.90;;;;;;5346290;26;20289;-72
2024/04/10 11:04:08;;;;;;;6.13;2.05;;;14.00;99.90;;;;;;5371189;26;20265;-73
2024/04/10 11:06:34;;;;;;;5.40;1.55;;;13.80;99.90;;;;;;5379807;26;20277;-72
2024/04/10 11:09:25;;;;;;;4.63;1.73;;;13.80;99.90;;;;;;5395097;26;20229;-72
2024/04/10 11:11:57;;;;;;;8.52;2.15;;;13.90;99.90;;;;;;5392356;26;20752;-71
2024/04/10 11:14:23;;;;;;;7.90;1.70;;;14.00;99.90;;;;;;5347471;26;20231;-71
2024/04/10 11:17:04;;;;;;;4.22;1.70;;;14.10;99.90;;;;;;5345107;26;20291;-72
2024/04/10 11:19:33;;;;;;;5.22;1.60;;;14.20;99.90;;;;;;5341931;26;20242;-71
2024/04/10 11:21:59;;;;;;;3.22;1.30;;;14.40;99.90;;;;;;5344282;26;20240;-72
2024/04/10 11:24:24;;;;;;;6.82;1.52;;;14.60;99.90;;;;;;5346818;26;20276;-72
2024/04/10 11:26:50;;;;;;;5.95;2.50;;;14.80;99.90;;;;;;5355272;26;20235;-71
2024/04/10 11:29:16;;;;;;;5.63;1.77;;;14.90;99.90;;;;;;5341885;26;20242;-72
2024/04/10 11:31:42;;;;;;;6.70;1.88;;;15.00;99.90;;;;;;5341139;26;20238;-71
2024/04/10 11:34:10;;;;;;;4.65;1.55;;;15.00;99.90;;;;;;5340634;26;20230;-72
2024/04/10 11:36:35;;;;;;;7.28;1.63;;;14.90;99.90;;;;;;5340749;26;20231;-72
2024/04/10 11:39:01;;;;;;;4.45;1.23;;;14.80;99.90;;;;;;5359144;26;20651;-72
2024/04/10 11:41:26;;;;;;;4.95;1.70;;;14.70;99.90;;;;;;5350673;26;20285;-72
2024/04/10 11:43:52;;;;;;;2.88;1.10;;;14.70;99.90;;;;;;5379206;26;20229;-71
2024/04/10 11:46:19;;;;;;;3.70;1.40;;;14.70;99.90;;;;;;5377188;26;20271;-72
2024/04/10 11:48:45;;;;;;;10.45;1.73;;;15.00;99.90;;;;;;5359521;26;20231;-71
2024/04/10 11:51:10;;;;;;;6.15;2.05;;;15.40;99.90;;;;;;5344131;26;20329;-71
2024/04/10 11:53:37;;;;;;;4.43;1.80;;;15.70;99.90;;;;;;5343732;26;20242;-72
2024/04/10 11:56:03;;;;;;;5.93;1.83;;;15.80;99.90;;;;;;5345670;26;20274;-71
2024/04/10 11:58:28;;;;;;;3.67;1.52;;;16.10;99.90;;;;;;5363815;26;20588;-72
2024/04/10 12:00:54;;;;;;;2.25;1.15;;;16.30;99.90;;;;;;5365318;26;20326;-72
2024/04/10 12:03:21;;;;;;;5.13;1.40;;;16.50;99.90;;;;;;5378667;26;20272;-72
2024/04/10 12:05:46;;;;;;;3.75;1.33;;;16.50;99.90;;;;;;5379890;26;20243;-73
2024/04/10 12:08:12;;;;;;;3.83;1.30;;;16.40;99.90;;;;;;5377584;26;20265;-70
2024/04/10 12:10:39;;;;;;;6.75;1.13;;;16.50;99.90;;;;;;5382690;26;20304;-71
2024/04/10 12:13:04;;;;;;;6.30;1.65;;;16.60;99.90;;;;;;5371305;26;20243;-72
2024/04/10 12:15:30;;;;;;;2.83;1.35;;;16.70;99.90;;;;;;5387481;26;20319;-72
2024/04/10 12:17:55;;;;;;;5.10;1.55;;;16.80;99.90;;;;;;5372486;26;20767;-71
2024/04/10 12:20:23;;;;;;;4.72;1.55;;;17.00;99.90;;;;;;5379100;26;20856;-72
2024/04/10 12:22:49;;;;;;;7.72;1.52;;;17.20;99.90;;;;;;5369978;26;20238;-72
2024/04/10 12:25:15;;;;;;;4.10;1.27;;;17.30;99.90;;;;;;5382161;26;20649;-72
2024/04/10 12:27:41;;;;;;;4.10;0.95;;;17.30;99.90;;;;;;5369805;26;20241;-73
2024/04/10 12:30:07;;;;;;;3.13;1.42;;;17.40;99.90;;;;;;5382808;26;20283;-72
2024/04/10 12:32:32;;;;;;;3.58;1.17;;;17.50;99.90;;;;;;5382327;26;20342;-71
2024/04/10 12:38:02;;;;;;;3.22;1.45;;;17.50;99.90;;;;;;5367203;26;20283;-72
2024/04/10 12:40:27;;;;;;;6.47;1.40;;;17.60;99.90;;;;;;5384222;26;20802;-71
2024/04/10 12:42:53;;;;;;;8.80;1.67;;;17.40;99.90;;;;;;5367526;26;20241;-72
2024/04/10 12:45:18;;;;;;;6.30;1.30;;;17.40;99.90;;;;;;5352562;26;20246;-71
2024/04/10 12:47:44;;;;;;;2.65;1.08;;;17.50;99.90;;;;;;5382362;26;20829;-72